Time,TemperatureF,DewpointF,PressureIn,WindDirection,WindDirectionDegrees,WindSpeedMPH,WindSpeedGustMPH,Humidity,HourlyPrecipIn,Conditions,Clouds,dailyrainin,SoftwareType,DateUTC
2013-03-02 00:00:00,40.1,36.0,29.92,WSW,257,0.0,0.0,85,0.00,OVC,BKN,0.00,WeatherDisplay:10.37,2013-03-02 05:00:00,
2013-03-02 00:01:00,40.1,36.0,29.92,WSW,257,0.0,0.0,85,0.00,OVC,BKN,0.00,WeatherDisplay:10.37,2013-03-02 05:01:00,
2013-03-02 00:06:00,40.1,36.0,29.92,WSW,257,0.0,0.0,85,0.00,OVC,BKN,0.00,WeatherDisplay:10.37,2013-03-02 05:06:00,
2013-03-02 00:11:00,40.3,36.4,29.93,WSW,257,0.0,0.0,86,0.00,OVC,BKN,0.00,WeatherDisplay:10.37,2013-03-02 05:11:00,
2013-03-02 00:16:00,40.4,36.5,29.93,WSW,257,0.0,0.0,86,0.00,OVC,BKN,0.00,WeatherDisplay:10.37,2013-03-02 05:16:00,
2013-03-02 00:21:00,40.5,36.6,29.92,WSW,257,0.0,0.0,86,0.00,OVC,BKN,0.00,WeatherDisplay:10.37,2013-03-02 05:21:00,
2013-03-02 00:26:00,40.6,36.7,29.93,WSW,257,0.0,0.0,86,0.00,OVC,BKN,0.00,WeatherDisplay:10.37,2013-03-02 05:26:00,
2013-03-02 00:31:00,40.6,36.7,29.92,WSW,257,0.0,0.0,86,0.00,OVC,BKN,0.00,WeatherDisplay:10.37,2013-03-02 05:31:00,
2013-03-02 00:36:00,40.7,36.8,29.92,WSW,257,0.0,0.0,86,0.00,OVC,BKN,0.00,WeatherDisplay:10.37,2013-03-02 05:36:00,
2013-03-02 00:41:00,40.8,36.9,29.92,WSW,257,0.0,0.0,86,0.00,OVC,BKN,0.00,WeatherDisplay:10.37,2013-03-02 05:41:00,
2013-03-02 00:46:00,40.9,37.0,29.92,WSW,257,0.0,0.0,86,0.00,OVC,BKN,0.00,WeatherDisplay:10.37,2013-03-02 05:46:00,
2013-03-02 00:51:00,40.9,37.0,29.92,WSW,257,0.0,0.0,86,0.00,OVC,BKN,0.00,WeatherDisplay:10.37,2013-03-02 05:51:00,
2013-03-02 00:56:00,41.1,37.2,29.92,WSW,257,0.0,0.0,86,0.00,OVC,BKN,0.00,WeatherDisplay:10.37,2013-03-02 05:56:00,
2013-03-02 01:01:00,41.1,37.2,29.92,WSW,257,0.0,0.0,86,0.00,OVC,BKN,0.00,WeatherDisplay:10.37,2013-03-02 06:01:00,
2013-03-02 01:06:00,41.1,37.2,29.93,WSW,257,0.0,0.0,86,0.00,OVC,BKN,0.00,WeatherDisplay:10.37,2013-03-02 06:06:00,
2013-03-02 01:11:00,41.1,36.9,29.93,WSW,257,0.0,0.0,85,0.00,OVC,BKN,0.00,WeatherDisplay:10.37,2013-03-02 06:11:00,
2013-03-02 01:16:00,41.1,36.9,29.93,WSW,257,0.0,0.0,85,0.00,OVC,BKN,0.00,WeatherDisplay:10.37,2013-03-02 06:16:00,
2013-03-02 01:21:00,41.0,36.8,29.93,WSW,257,0.0,0.0,85,0.00,OVC,BKN,0.00,WeatherDisplay:10.37,2013-03-02 06:21:00,
2013-03-02 01:26:00,41.0,36.8,29.93,WSW,257,0.0,0.0,85,0.00,OVC,BKN,0.00,WeatherDisplay:10.37,2013-03-02 06:26:00,
2013-03-02 01:31:00,41.0,36.8,29.92,WSW,257,0.0,0.0,85,0.00,OVC,BKN,0.00,WeatherDisplay:10.37,2013-03-02 06:31:00,
2013-03-02 01:36:00,41.0,36.8,29.92,WSW,257,0.0,0.0,85,0.00,OVC,BKN,0.00,WeatherDisplay:10.37,2013-03-02 06:36:00,
2013-03-02 01:41:00,40.9,37.0,29.92,WSW,257,0.0,0.0,86,0.00,OVC,BKN,0.00,WeatherDisplay:10.37,2013-03-02 06:41:00,
2013-03-02 01:46:00,40.9,37.0,29.92,WSW,257,0.0,0.0,86,0.00,OVC,BKN,0.00,WeatherDisplay:10.37,2013-03-02 06:46:00,
2013-03-02 01:51:00,40.9,37.0,29.92,WSW,257,0.0,0.0,86,0.00,OVC,BKN,0.00,WeatherDisplay:10.37,2013-03-02 06:51:00,
2013-03-02 01:56:00,40.9,37.0,29.93,WSW,257,0.0,0.0,86,0.00,OVC,BKN,0.00,WeatherDisplay:10.37,2013-03-02 06:56:00,
2013-03-02 02:01:00,40.9,37.0,29.92,WSW,257,0.0,0.0,86,0.00,OVC,BKN,0.00,WeatherDisplay:10.37,2013-03-02 07:01:00,
2013-03-02 02:06:00,40.9,37.0,29.92,WSW,257,0.0,0.0,86,0.00,OVC,BKN,0.00,WeatherDisplay:10.37,2013-03-02 07:06:00,
2013-03-02 02:11:00,40.9,37.0,29.92,WSW,257,0.0,0.0,86,0.00,OVC,BKN,0.00,WeatherDisplay:10.37,2013-03-02 07:11:00,
2013-03-02 02:16:00,40.9,37.0,29.92,WSW,257,0.0,0.0,86,0.00,OVC,BKN,0.00,WeatherDisplay:10.37,2013-03-02 07:16:00,
2013-03-02 02:21:00,40.8,36.9,29.92,WSW,257,0.0,0.0,86,0.00,OVC,BKN,0.00,WeatherDisplay:10.37,2013-03-02 07:21:00,
2013-03-02 02:26:00,40.7,36.5,29.92,WSW,257,0.0,0.0,85,0.00,OVC,BKN,0.00,WeatherDisplay:10.37,2013-03-02 07:26:00,
2013-03-02 02:31:00,40.6,36.4,29.92,WSW,257,0.0,0.0,85,0.00,OVC,BKN,0.00,WeatherDisplay:10.37,2013-03-02 07:31:00,
2013-03-02 02:36:00,40.5,36.3,29.92,WSW,257,0.0,0.0,85,0.00,OVC,BKN,0.00,WeatherDisplay:10.37,2013-03-02 07:36:00,
2013-03-02 02:41:00,40.4,36.2,29.92,WSW,257,0.0,0.0,85,0.00,OVC,BKN,0.00,WeatherDisplay:10.37,2013-03-02 07:41:00,
2013-03-02 02:47:00,40.2,36.3,29.92,WSW,257,0.0,0.0,86,0.00,OVC,BKN,0.00,WeatherDisplay:10.37,2013-03-02 07:47:00,
2013-03-02 02:51:00,40.1,36.2,29.91,WSW,257,0.0,0.0,86,0.00,OVC,BKN,0.00,WeatherDisplay:10.37,2013-03-02 07:51:00,
2013-03-02 02:56:00,40.0,35.9,29.91,WSW,257,0.0,0.0,85,0.00,OVC,BKN,0.00,WeatherDisplay:10.37,2013-03-02 07:56:00,
2013-03-02 03:01:00,39.8,35.7,29.91,WSW,257,0.0,0.0,85,0.00,BKN,,0.00,WeatherDisplay:10.37,2013-03-02 08:01:00,
2013-03-02 03:06:00,39.7,35.6,29.91,WSW,257,0.0,0.0,85,0.00,BKN,,0.00,WeatherDisplay:10.37,2013-03-02 08:06:00,
2013-03-02 03:12:00,39.5,35.4,29.90,WSW,257,0.0,0.0,85,0.00,BKN,,0.00,WeatherDisplay:10.37,2013-03-02 08:12:00,
2013-03-02 03:17:00,39.3,35.2,29.90,WSW,257,0.0,0.0,85,0.00,BKN,,0.00,WeatherDisplay:10.37,2013-03-02 08:17:00,
2013-03-02 03:22:00,39.1,35.0,29.91,WSW,257,0.0,0.0,85,0.00,BKN,,0.00,WeatherDisplay:10.37,2013-03-02 08:22:00,
2013-03-02 03:27:00,38.8,34.7,29.90,WSW,257,0.0,0.0,85,0.00,BKN,,0.00,WeatherDisplay:10.37,2013-03-02 08:27:00,
2013-03-02 03:32:00,38.4,34.3,29.90,WSW,257,0.0,0.0,85,0.00,BKN,,0.00,WeatherDisplay:10.37,2013-03-02 08:32:00,
2013-03-02 03:37:00,38.2,34.1,29.90,WSW,257,0.0,0.0,85,0.00,BKN,,0.00,WeatherDisplay:10.37,2013-03-02 08:37:00,
2013-03-02 03:42:00,37.9,33.5,29.90,WSW,257,0.0,0.0,84,0.00,BKN,,0.00,WeatherDisplay:10.37,2013-03-02 08:42:00,
2013-03-02 03:47:00,37.5,33.4,29.90,WSW,257,0.0,0.0,85,0.00,BKN,,0.00,WeatherDisplay:10.37,2013-03-02 08:47:00,
2013-03-02 03:52:00,37.3,33.2,29.90,WSW,257,0.0,0.0,85,0.00,BKN,,0.00,WeatherDisplay:10.37,2013-03-02 08:52:00,
2013-03-02 03:57:00,37.1,33.0,29.90,WSW,257,0.0,0.0,85,0.00,BKN,,0.00,WeatherDisplay:10.37,2013-03-02 08:57:00,
2013-03-02 04:02:00,37.0,32.9,29.90,WSW,257,0.0,0.0,85,0.00,BKN,,0.00,WeatherDisplay:10.37,2013-03-02 09:02:00,
2013-03-02 04:07:00,36.8,33.0,29.90,WSW,257,0.0,0.0,86,0.00,SCT,BKN,0.00,WeatherDisplay:10.37,2013-03-02 09:07:00,
2013-03-02 04:12:00,36.6,32.8,29.91,WSW,257,0.0,0.0,86,0.00,SCT,BKN,0.00,WeatherDisplay:10.37,2013-03-02 09:12:00,
2013-03-02 04:17:00,36.4,32.9,29.90,WSW,257,0.0,0.0,87,0.00,SCT,BKN,0.00,WeatherDisplay:10.37,2013-03-02 09:17:00,
2013-03-02 04:22:00,36.3,32.8,29.91,WSW,257,0.0,0.0,87,0.00,SCT,BKN,0.00,WeatherDisplay:10.37,2013-03-02 09:22:00,
2013-03-02 04:27:00,36.2,32.7,29.91,WSW,257,0.0,0.0,87,0.00,SCT,BKN,0.00,WeatherDisplay:10.37,2013-03-02 09:27:00,
2013-03-02 04:32:00,36.2,33.0,29.91,WSW,257,0.0,0.0,88,0.00,SCT,BKN,0.00,WeatherDisplay:10.37,2013-03-02 09:32:00,
2013-03-02 04:37:00,36.1,32.9,29.91,WSW,257,0.0,0.0,88,0.00,SCT,BKN,0.00,WeatherDisplay:10.37,2013-03-02 09:37:00,
2013-03-02 04:42:00,36.1,32.9,29.91,WSW,257,0.0,0.0,88,0.00,SCT,BKN,0.00,WeatherDisplay:10.37,2013-03-02 09:42:00,
2013-03-02 04:47:00,36.1,33.2,29.91,WSW,257,0.0,0.0,89,0.00,SCT,BKN,0.00,WeatherDisplay:10.37,2013-03-02 09:47:00,
2013-03-02 04:52:00,36.1,33.2,29.91,WSW,257,0.0,0.0,89,0.00,SCT,BKN,0.00,WeatherDisplay:10.37,2013-03-02 09:52:00,
2013-03-02 04:57:00,36.1,33.2,29.91,WSW,257,0.0,0.0,89,0.00,SCT,BKN,0.00,WeatherDisplay:10.37,2013-03-02 09:57:00,
2013-03-02 05:02:00,36.1,33.2,29.91,WSW,257,0.0,0.0,89,0.00,FEW,BKN,0.00,WeatherDisplay:10.37,2013-03-02 10:02:00,
2013-03-02 05:07:00,36.2,33.5,29.91,WSW,257,0.0,0.0,90,0.00,FEW,BKN,0.00,WeatherDisplay:10.37,2013-03-02 10:07:00,
2013-03-02 05:12:00,36.2,33.5,29.91,WSW,257,0.0,0.0,90,0.00,FEW,BKN,0.00,WeatherDisplay:10.37,2013-03-02 10:12:00,
2013-03-02 05:17:00,36.4,34.0,29.91,WSW,257,0.0,0.0,91,0.00,FEW,BKN,0.00,WeatherDisplay:10.37,2013-03-02 10:17:00,
2013-03-02 05:22:00,36.6,34.2,29.91,WSW,257,0.0,0.0,91,0.00,FEW,BKN,0.00,WeatherDisplay:10.37,2013-03-02 10:22:00,
2013-03-02 05:27:00,36.8,34.4,29.91,WSW,257,0.0,0.0,91,0.00,FEW,BKN,0.00,WeatherDisplay:10.37,2013-03-02 10:27:00,
2013-03-02 05:32:00,36.9,34.5,29.91,WSW,257,0.0,0.0,91,0.00,FEW,BKN,0.00,WeatherDisplay:10.37,2013-03-02 10:32:00,
2013-03-02 05:37:00,37.0,34.6,29.91,WSW,257,0.0,0.0,91,0.00,FEW,BKN,0.00,WeatherDisplay:10.37,2013-03-02 10:37:00,
2013-03-02 05:43:00,37.1,34.7,29.91,WSW,257,0.0,0.0,91,0.00,FEW,BKN,0.00,WeatherDisplay:10.37,2013-03-02 10:43:00,
2013-03-02 05:48:00,37.1,34.7,29.91,WSW,257,0.0,0.0,91,0.00,FEW,BKN,0.00,WeatherDisplay:10.37,2013-03-02 10:48:00,
2013-03-02 05:53:00,37.0,34.6,29.91,WSW,257,0.0,0.0,91,0.00,FEW,BKN,0.00,WeatherDisplay:10.37,2013-03-02 10:53:00,
2013-03-02 05:58:00,37.0,34.6,29.91,WSW,257,0.0,0.0,91,0.00,FEW,BKN,0.00,WeatherDisplay:10.37,2013-03-02 10:58:00,
2013-03-02 06:03:00,36.9,34.5,29.91,WSW,257,0.0,0.0,91,0.00,OVC,BKN,0.00,WeatherDisplay:10.37,2013-03-02 11:03:00,
2013-03-02 06:08:00,36.8,34.4,29.91,WSW,257,0.0,0.0,91,0.00,OVC,BKN,0.00,WeatherDisplay:10.37,2013-03-02 11:08:00,
2013-03-02 06:13:00,36.7,34.0,29.91,WSW,257,0.0,0.0,90,0.00,OVC,BKN,0.00,WeatherDisplay:10.37,2013-03-02 11:13:00,
2013-03-02 06:18:00,36.6,33.9,29.91,WSW,257,0.0,0.0,90,0.00,OVC,BKN,0.00,WeatherDisplay:10.37,2013-03-02 11:18:00,
2013-03-02 06:23:00,36.5,33.8,29.91,WSW,257,0.0,0.0,90,0.00,OVC,BKN,0.00,WeatherDisplay:10.37,2013-03-02 11:23:00,
2013-03-02 06:28:00,36.5,33.8,29.91,WSW,257,0.0,0.0,90,0.00,OVC,BKN,0.00,WeatherDisplay:10.37,2013-03-02 11:28:00,
2013-03-02 06:33:00,36.5,33.8,29.91,WSW,257,0.0,0.0,90,0.00,OVC,BKN,0.00,WeatherDisplay:10.37,2013-03-02 11:33:00,
2013-03-02 06:38:00,36.5,33.8,29.91,WSW,257,0.0,0.0,90,0.00,OVC,BKN,0.00,WeatherDisplay:10.37,2013-03-02 11:38:00,
2013-03-02 06:43:00,36.7,34.0,29.91,WSW,257,0.0,0.0,90,0.00,OVC,BKN,0.00,WeatherDisplay:10.37,2013-03-02 11:43:00,
2013-03-02 06:48:00,36.8,33.9,29.91,WSW,257,0.0,0.0,89,0.00,OVC,BKN,0.00,WeatherDisplay:10.37,2013-03-02 11:48:00,
2013-03-02 06:53:00,37.1,34.2,29.91,West,259,0.0,0.0,89,0.00,OVC,BKN,0.00,WeatherDisplay:10.37,2013-03-02 11:53:00,
2013-03-02 06:58:00,37.2,34.0,29.91,West,259,0.0,0.0,88,0.00,OVC,BKN,0.00,WeatherDisplay:10.37,2013-03-02 11:58:00,
2013-03-02 07:03:00,37.4,33.9,29.91,West,259,0.0,3.5,87,0.00,OVC,BKN,0.00,WeatherDisplay:10.37,2013-03-02 12:03:00,
2013-03-02 07:08:00,37.7,33.9,29.91,West,262,0.0,0.0,86,0.00,OVC,BKN,0.00,WeatherDisplay:10.37,2013-03-02 12:08:00,
2013-03-02 07:13:00,38.0,33.9,29.91,West,262,0.0,0.0,85,0.00,OVC,BKN,0.00,WeatherDisplay:10.37,2013-03-02 12:13:00,
2013-03-02 07:18:00,38.2,34.1,29.91,West,262,0.0,0.0,85,0.00,OVC,BKN,0.00,WeatherDisplay:10.37,2013-03-02 12:18:00,
2013-03-02 07:23:00,38.4,34.0,29.91,West,262,0.0,0.0,84,0.00,OVC,BKN,0.00,WeatherDisplay:10.37,2013-03-02 12:23:00,
2013-03-02 07:28:00,38.6,33.6,29.91,North,355,0.5,4.6,82,0.00,OVC,BKN,0.00,WeatherDisplay:10.37,2013-03-02 12:28:00,
2013-03-02 07:33:00,38.9,33.6,29.91,North,356,0.6,4.6,81,0.00,OVC,BKN,0.00,WeatherDisplay:10.37,2013-03-02 12:33:00,
2013-03-02 07:38:00,39.1,33.1,29.91,North,356,0.0,0.0,79,0.00,OVC,BKN,0.00,WeatherDisplay:10.37,2013-03-02 12:38:00,
2013-03-02 07:43:00,39.3,33.3,29.91,North,357,1.1,6.1,79,0.00,OVC,BKN,0.00,WeatherDisplay:10.37,2013-03-02 12:43:00,
2013-03-02 07:48:00,39.5,33.2,29.90,North,357,0.0,4.6,78,0.00,OVC,BKN,0.00,WeatherDisplay:10.37,2013-03-02 12:48:00,
2013-03-02 07:53:00,39.7,33.1,29.90,North,358,0.4,4.6,77,0.00,OVC,BKN,0.00,WeatherDisplay:10.37,2013-03-02 12:53:00,
2013-03-02 07:58:00,39.9,33.3,29.91,North,359,0.8,3.7,77,0.00,OVC,BKN,0.00,WeatherDisplay:10.37,2013-03-02 12:58:00,
2013-03-02 08:03:00,40.1,33.1,29.91,North,356,0.0,4.6,76,0.00,SCT,BKN,0.00,WeatherDisplay:10.37,2013-03-02 13:03:00,
2013-03-02 08:08:00,40.3,33.3,29.90,North,356,0.0,0.0,76,0.00,SCT,BKN,0.00,WeatherDisplay:10.37,2013-03-02 13:08:00,
2013-03-02 08:13:00,40.6,33.6,29.90,North,356,0.1,1.2,76,0.00,SCT,BKN,0.00,WeatherDisplay:10.37,2013-03-02 13:13:00,
2013-03-02 08:18:00,40.8,33.5,29.91,North,357,0.0,1.2,75,0.00,SCT,BKN,0.00,WeatherDisplay:10.37,2013-03-02 13:18:00,
2013-03-02 08:23:00,41.1,33.4,29.91,North,353,0.0,3.5,74,0.00,SCT,BKN,0.00,WeatherDisplay:10.37,2013-03-02 13:23:00,
2013-03-02 08:28:00,41.4,33.4,29.91,North,356,0.0,3.5,73,0.00,SCT,BKN,0.00,WeatherDisplay:10.37,2013-03-02 13:28:00,
2013-03-02 08:33:00,41.8,33.4,29.91,North,358,0.0,4.6,72,0.00,SCT,BKN,0.00,WeatherDisplay:10.37,2013-03-02 13:33:00,
2013-03-02 08:38:00,42.1,33.4,29.91,North,359,0.3,2.5,71,0.00,SCT,BKN,0.00,WeatherDisplay:10.37,2013-03-02 13:38:00,
2013-03-02 08:43:00,42.3,33.2,29.91,North,359,0.4,2.5,70,0.00,SCT,BKN,0.00,WeatherDisplay:10.37,2013-03-02 13:43:00,
2013-03-02 08:48:00,42.5,34.1,29.90,North,359,0.0,2.3,72,0.00,SCT,BKN,0.00,WeatherDisplay:10.37,2013-03-02 13:48:00,
2013-03-02 08:53:00,42.6,32.8,29.90,North,359,0.0,1.2,68,0.00,SCT,BKN,0.00,WeatherDisplay:10.37,2013-03-02 13:53:00,
2013-03-02 08:58:00,42.8,32.2,29.90,North,3,3.3,6.1,66,0.00,SCT,BKN,0.00,WeatherDisplay:10.37,2013-03-02 13:58:00,
2013-03-02 09:03:00,43.0,32.4,29.90,North,3,0.0,1.2,66,0.00,OVC,BKN,0.00,WeatherDisplay:10.37,2013-03-02 14:03:00,
2013-03-02 09:08:00,43.1,32.5,29.90,North,3,0.0,0.0,66,0.00,OVC,BKN,0.00,WeatherDisplay:10.37,2013-03-02 14:08:00,
2013-03-02 09:13:00,43.3,32.3,29.90,North,3,0.0,1.2,65,0.00,OVC,BKN,0.00,WeatherDisplay:10.37,2013-03-02 14:13:00,
2013-03-02 09:18:00,43.5,31.7,29.89,North,3,0.5,4.6,63,0.00,OVC,BKN,0.00,WeatherDisplay:10.37,2013-03-02 14:18:00,
2013-03-02 09:23:00,44.1,32.3,29.89,North,5,0.9,4.6,63,0.00,OVC,BKN,0.00,WeatherDisplay:10.37,2013-03-02 14:23:00,
2013-03-02 09:28:00,44.6,32.0,29.89,NNE,18,4.7,8.6,61,0.00,OVC,BKN,0.00,WeatherDisplay:10.37,2013-03-02 14:28:00,
2013-03-02 09:33:00,45.5,32.4,29.89,North,1,0.8,3.7,60,0.00,OVC,BKN,0.00,WeatherDisplay:10.37,2013-03-02 14:33:00,
2013-03-02 09:38:00,46.1,31.7,29.90,NNE,15,2.9,8.6,57,0.00,OVC,BKN,0.00,WeatherDisplay:10.37,2013-03-02 14:38:00,
2013-03-02 09:43:00,46.5,32.1,29.89,NNE,15,0.0,0.0,57,0.00,OVC,BKN,0.00,WeatherDisplay:10.37,2013-03-02 14:43:00,
2013-03-02 09:48:00,46.7,30.9,29.89,NNE,13,0.2,2.3,54,0.00,OVC,BKN,0.00,WeatherDisplay:10.37,2013-03-02 14:48:00,
2013-03-02 09:53:00,46.9,32.0,29.89,NNE,12,0.0,0.0,56,0.00,OVC,BKN,0.00,WeatherDisplay:10.37,2013-03-02 14:53:00,
2013-03-02 09:58:00,47.0,31.2,29.89,North,7,0.7,3.7,54,0.00,OVC,BKN,0.00,WeatherDisplay:10.37,2013-03-02 14:58:00,
2013-03-02 10:03:00,47.1,31.3,29.89,North,6,0.3,2.5,54,0.00,OVC,BKN,0.00,WeatherDisplay:10.37,2013-03-02 15:03:00,
2013-03-02 10:08:00,47.3,31.0,29.89,North,6,0.0,2.3,53,0.00,OVC,BKN,0.00,WeatherDisplay:10.37,2013-03-02 15:08:00,
2013-03-02 10:13:00,47.5,31.7,29.89,North,11,0.0,0.0,54,0.00,OVC,BKN,0.00,WeatherDisplay:10.37,2013-03-02 15:13:00,
2013-03-02 10:18:00,47.7,31.4,29.89,NNE,12,0.0,4.6,53,0.00,OVC,BKN,0.00,WeatherDisplay:10.37,2013-03-02 15:18:00,
2013-03-02 10:23:00,48.2,32.3,29.89,North,10,0.0,2.3,54,0.00,OVC,BKN,0.00,WeatherDisplay:10.37,2013-03-02 15:23:00,
2013-03-02 10:28:00,49.1,32.2,29.89,North,10,0.0,0.0,52,0.00,OVC,BKN,0.00,WeatherDisplay:10.37,2013-03-02 15:28:00,
2013-03-02 10:33:00,49.7,31.3,29.89,North,6,0.1,3.5,49,0.00,OVC,BKN,0.00,WeatherDisplay:10.37,2013-03-02 15:33:00,
2013-03-02 10:38:00,50.0,31.1,29.89,North,3,2.6,4.9,48,0.00,OVC,BKN,0.00,WeatherDisplay:10.37,2013-03-02 15:38:00,
2013-03-02 10:44:00,50.2,31.2,29.88,North,4,0.0,0.0,48,0.00,OVC,BKN,0.00,WeatherDisplay:10.37,2013-03-02 15:44:00,
2013-03-02 10:49:00,50.7,32.2,29.89,NNW,336,2.8,11.5,49,0.00,OVC,BKN,0.00,WeatherDisplay:10.37,2013-03-02 15:49:00,
2013-03-02 10:54:00,51.3,32.3,29.88,NNW,337,0.0,0.0,48,0.00,OVC,BKN,0.00,WeatherDisplay:10.37,2013-03-02 15:54:00,
2013-03-02 10:59:00,51.7,32.1,29.88,NNW,345,0.0,4.6,47,0.00,OVC,BKN,0.00,WeatherDisplay:10.37,2013-03-02 15:59:00,
2013-03-02 11:04:00,51.9,32.8,29.88,WNW,299,2.4,6.1,48,0.00,BKN,,0.00,WeatherDisplay:10.37,2013-03-02 16:04:00,
2013-03-02 11:09:00,52.1,31.9,29.88,WNW,299,0.0,3.5,46,0.00,BKN,,0.00,WeatherDisplay:10.37,2013-03-02 16:09:00,
2013-03-02 11:14:00,52.2,32.0,29.88,WNW,299,0.0,0.0,46,0.00,BKN,,0.00,WeatherDisplay:10.37,2013-03-02 16:14:00,
2013-03-02 11:19:00,52.6,34.5,29.88,WNW,301,0.0,0.0,50,0.00,BKN,,0.00,WeatherDisplay:10.37,2013-03-02 16:19:00,
2013-03-02 11:24:00,53.2,35.0,29.88,WSW,241,2.8,4.7,50,0.00,BKN,,0.00,WeatherDisplay:10.37,2013-03-02 16:24:00,
2013-03-02 11:29:00,52.4,34.3,29.88,SSW,199,12.1,16.1,50,0.00,BKN,,0.00,WeatherDisplay:10.37,2013-03-02 16:29:00,
2013-03-02 11:34:00,51.5,34.9,29.88,SSW,201,0.2,8.1,53,0.00,BKN,,0.00,WeatherDisplay:10.37,2013-03-02 16:34:00,
2013-03-02 11:39:00,51.5,34.0,29.88,SSW,201,0.3,3.5,51,0.00,BKN,,0.00,WeatherDisplay:10.37,2013-03-02 16:39:00,
2013-03-02 11:44:00,51.5,34.0,29.88,SSW,203,8.9,11.5,51,0.00,BKN,,0.00,WeatherDisplay:10.37,2013-03-02 16:44:00,
2013-03-02 11:49:00,51.0,34.9,29.88,South,180,2.2,9.2,54,0.00,BKN,,0.00,WeatherDisplay:10.37,2013-03-02 16:49:00,
2013-03-02 11:54:00,51.5,35.4,29.87,ESE,110,0.0,1.2,54,0.00,BKN,,0.00,WeatherDisplay:10.37,2013-03-02 16:54:00,
2013-03-02 11:59:00,51.8,34.7,29.87,South,178,7.3,9.4,52,0.00,BKN,,0.00,WeatherDisplay:10.37,2013-03-02 16:59:00,
2013-03-02 12:04:00,52.2,35.1,29.87,South,191,2.7,13.8,52,0.00,BKN,,0.00,WeatherDisplay:10.37,2013-03-02 17:04:00,
2013-03-02 12:09:00,52.4,35.3,29.87,SW,222,8.7,11.5,52,0.00,BKN,,0.00,WeatherDisplay:10.37,2013-03-02 17:09:00,
2013-03-02 12:14:00,52.4,35.8,29.86,SE,141,0.2,12.7,53,0.00,BKN,,0.00,WeatherDisplay:10.37,2013-03-02 17:14:00,
2013-03-02 12:19:00,53.2,36.0,29.86,SW,214,2.8,10.9,52,0.00,BKN,,0.00,WeatherDisplay:10.37,2013-03-02 17:19:00,
2013-03-02 12:24:00,52.9,35.2,29.86,SSW,203,2.7,16.1,51,0.00,BKN,,0.00,WeatherDisplay:10.37,2013-03-02 17:24:00,
2013-03-02 12:29:00,53.5,35.8,29.86,South,176,2.3,6.2,51,0.00,BKN,,0.00,WeatherDisplay:10.37,2013-03-02 17:29:00,
2013-03-02 12:34:00,54.1,35.3,29.86,SW,218,6.1,11.5,49,0.00,BKN,,0.00,WeatherDisplay:10.37,2013-03-02 17:34:00,
2013-03-02 12:39:00,53.1,34.4,29.85,SSW,203,2.3,13.8,49,0.00,BKN,,0.00,WeatherDisplay:10.37,2013-03-02 17:39:00,
2013-03-02 12:44:00,52.1,34.5,29.85,SSW,201,7.8,14.1,51,0.00,BKN,,0.00,WeatherDisplay:10.37,2013-03-02 17:44:00,
2013-03-02 12:49:00,51.2,33.7,29.85,SSW,209,8.5,16.1,51,0.00,BKN,,0.00,WeatherDisplay:10.37,2013-03-02 17:49:00,
2013-03-02 12:54:00,50.2,33.7,29.85,SSW,201,12.3,16.1,53,0.00,BKN,,0.00,WeatherDisplay:10.37,2013-03-02 17:54:00,
2013-03-02 12:59:00,49.6,33.2,29.85,SSW,200,11.0,12.7,53,0.00,BKN,,0.00,WeatherDisplay:10.37,2013-03-02 17:59:00,
2013-03-02 13:04:00,49.5,34.4,29.85,SSW,201,1.5,8.1,56,0.00,OVC,BKN,0.00,WeatherDisplay:10.37,2013-03-02 18:04:00,
2013-03-02 13:09:00,49.6,34.5,29.85,SSW,207,2.4,9.2,56,0.00,OVC,BKN,0.00,WeatherDisplay:10.37,2013-03-02 18:09:00,
2013-03-02 13:14:00,50.0,34.9,29.84,SSW,207,8.3,9.2,56,0.00,OVC,BKN,0.00,WeatherDisplay:10.37,2013-03-02 18:14:00,
2013-03-02 13:19:00,50.5,34.9,29.84,SSW,203,6.4,9.4,55,0.00,OVC,BKN,0.00,WeatherDisplay:10.37,2013-03-02 18:19:00,
2013-03-02 13:25:00,50.3,34.7,29.85,SSW,204,1.1,5.8,55,0.00,OVC,BKN,0.00,WeatherDisplay:10.37,2013-03-02 18:25:00,
2013-03-02 13:30:00,49.9,35.3,29.84,SSW,202,0.4,1.6,57,0.00,OVC,BKN,0.00,WeatherDisplay:10.37,2013-03-02 18:30:00,
2013-03-02 13:35:00,49.8,35.2,29.84,SSW,202,3.5,4.7,57,0.00,OVC,BKN,0.00,WeatherDisplay:10.37,2013-03-02 18:35:00,
2013-03-02 13:40:00,49.7,35.5,29.84,SSW,202,0.0,5.8,58,0.00,OVC,BKN,0.00,WeatherDisplay:10.37,2013-03-02 18:40:00,
2013-03-02 13:45:00,49.5,35.8,29.84,SSW,202,8.4,8.4,59,0.00,OVC,BKN,0.00,WeatherDisplay:10.37,2013-03-02 18:45:00,
2013-03-02 13:50:00,49.2,35.5,29.84,SSW,202,0.0,1.2,59,0.00,OVC,BKN,0.00,WeatherDisplay:10.37,2013-03-02 18:50:00,
2013-03-02 13:55:00,49.3,35.6,29.83,SSW,202,0.0,1.2,59,0.00,OVC,BKN,0.00,WeatherDisplay:10.37,2013-03-02 18:55:00,
2013-03-02 14:00:00,49.4,35.7,29.83,SSW,202,3.8,6.2,59,0.00,OVC,BKN,0.00,WeatherDisplay:10.37,2013-03-02 19:00:00,
2013-03-02 14:05:00,49.3,36.0,29.84,SSW,202,0.5,4.6,60,0.00,OVC,BKN,0.00,WeatherDisplay:10.37,2013-03-02 19:05:00,
2013-03-02 14:10:00,49.1,35.8,29.83,SSW,202,1.3,3.5,60,0.00,OVC,BKN,0.00,WeatherDisplay:10.37,2013-03-02 19:10:00,
2013-03-02 14:15:00,48.8,35.5,29.84,SSW,202,0.0,0.0,60,0.00,OVC,BKN,0.00,WeatherDisplay:10.37,2013-03-02 19:15:00,
2013-03-02 14:20:00,48.7,35.0,29.83,SSW,202,0.0,0.0,59,0.00,OVC,BKN,0.00,WeatherDisplay:10.37,2013-03-02 19:20:00,
2013-03-02 14:25:00,48.6,34.5,29.84,SSW,202,0.0,0.0,58,0.00,OVC,BKN,0.00,WeatherDisplay:10.37,2013-03-02 19:25:00,
2013-03-02 14:30:00,48.5,33.9,29.84,SSW,202,0.0,0.0,57,0.00,OVC,BKN,0.00,WeatherDisplay:10.37,2013-03-02 19:30:00,
2013-03-02 14:35:00,48.5,33.9,29.84,SSW,202,0.0,0.0,57,0.00,OVC,BKN,0.00,WeatherDisplay:10.37,2013-03-02 19:35:00,
2013-03-02 14:40:00,48.6,34.0,29.83,SSW,196,0.4,1.6,57,0.00,OVC,BKN,0.00,WeatherDisplay:10.37,2013-03-02 19:40:00,
2013-03-02 14:45:00,48.9,34.3,29.83,SSW,196,0.0,0.0,57,0.00,OVC,BKN,0.00,WeatherDisplay:10.37,2013-03-02 19:45:00,
2013-03-02 14:50:00,49.1,33.6,29.83,SSW,196,0.0,3.5,55,0.00,OVC,BKN,0.00,WeatherDisplay:10.37,2013-03-02 19:50:00,
2013-03-02 14:55:00,49.2,32.8,29.83,SSW,196,0.0,0.0,53,0.00,OVC,BKN,0.00,WeatherDisplay:10.37,2013-03-02 19:55:00,
2013-03-02 15:00:00,49.2,33.3,29.83,SSW,196,0.0,0.0,54,0.00,OVC,BKN,0.00,WeatherDisplay:10.37,2013-03-02 20:00:00,
2013-03-02 15:05:00,49.2,32.8,29.83,SSW,196,0.0,0.0,53,0.00,OVC,BKN,0.00,WeatherDisplay:10.37,2013-03-02 20:05:00,
2013-03-02 15:10:00,49.2,33.7,29.83,SSW,196,0.0,0.0,55,0.00,OVC,BKN,0.00,WeatherDisplay:10.37,2013-03-02 20:10:00,
2013-03-02 15:15:00,49.4,33.9,29.83,SSW,196,0.0,1.2,55,0.00,OVC,BKN,0.00,WeatherDisplay:10.37,2013-03-02 20:15:00,
2013-03-02 15:20:00,49.5,33.1,29.83,SSW,197,5.5,6.2,53,0.00,OVC,BKN,0.00,WeatherDisplay:10.37,2013-03-02 20:20:00,
2013-03-02 15:25:00,49.6,33.6,29.83,SSW,197,0.0,1.2,54,0.00,OVC,BKN,0.00,WeatherDisplay:10.37,2013-03-02 20:25:00,
2013-03-02 15:30:00,49.6,33.6,29.83,SSW,197,0.0,0.0,54,0.00,OVC,BKN,0.00,WeatherDisplay:10.37,2013-03-02 20:30:00,
2013-03-02 15:35:00,49.5,33.5,29.83,SSW,197,0.0,0.0,54,0.00,OVC,BKN,0.00,WeatherDisplay:10.37,2013-03-02 20:35:00,
2013-03-02 15:40:00,49.4,33.9,29.83,SSW,197,0.0,0.0,55,0.00,OVC,BKN,0.00,WeatherDisplay:10.37,2013-03-02 20:40:00,
2013-03-02 15:45:00,49.4,33.9,29.83,SSW,197,0.0,0.0,55,0.00,OVC,BKN,0.00,WeatherDisplay:10.37,2013-03-02 20:45:00,
2013-03-02 15:50:00,49.1,33.2,29.83,SSW,197,0.0,0.0,54,0.00,OVC,BKN,0.00,WeatherDisplay:10.37,2013-03-02 20:50:00,
2013-03-02 15:55:00,48.9,33.4,29.83,SSW,197,0.0,0.0,55,0.00,OVC,BKN,0.00,WeatherDisplay:10.37,2013-03-02 20:55:00,
2013-03-02 16:00:00,48.7,34.1,29.83,SSW,197,0.0,0.0,57,0.00,OVC,BKN,0.00,WeatherDisplay:10.37,2013-03-02 21:00:00,
2013-03-02 16:05:00,48.5,33.1,29.84,SSW,197,0.0,5.8,55,0.00,OVC,BKN,0.00,WeatherDisplay:10.37,2013-03-02 21:05:00,
2013-03-02 16:10:00,48.2,33.2,29.84,SSW,197,0.0,0.0,56,0.00,OVC,BKN,0.00,WeatherDisplay:10.37,2013-03-02 21:10:00,
2013-03-02 16:15:00,48.0,33.9,29.84,SSW,197,0.0,0.0,58,0.00,OVC,BKN,0.00,WeatherDisplay:10.37,2013-03-02 21:15:00,
2013-03-02 16:20:00,47.9,33.8,29.84,SSW,197,0.0,0.0,58,0.00,OVC,BKN,0.00,WeatherDisplay:10.37,2013-03-02 21:20:00,
2013-03-02 16:25:00,47.8,34.6,29.84,SSW,197,0.0,0.0,60,0.00,OVC,BKN,0.00,WeatherDisplay:10.37,2013-03-02 21:25:00,
2013-03-02 16:30:00,47.7,34.1,29.84,SSW,197,0.0,0.0,59,0.00,OVC,BKN,0.00,WeatherDisplay:10.37,2013-03-02 21:30:00,
2013-03-02 16:35:00,47.6,34.4,29.84,SSW,197,0.0,0.0,60,0.00,OVC,BKN,0.00,WeatherDisplay:10.37,2013-03-02 21:35:00,
2013-03-02 16:40:00,47.6,34.4,29.84,SSW,197,0.0,0.0,60,0.00,OVC,BKN,0.00,WeatherDisplay:10.37,2013-03-02 21:40:00,
2013-03-02 16:45:00,47.4,34.2,29.84,SSW,197,0.0,0.0,60,0.00,OVC,BKN,0.00,WeatherDisplay:10.37,2013-03-02 21:45:00,
2013-03-02 16:50:00,47.3,34.5,29.84,SSW,197,0.0,0.0,61,0.00,OVC,BKN,0.00,WeatherDisplay:10.37,2013-03-02 21:50:00,
2013-03-02 16:55:00,47.1,34.3,29.84,SSW,197,0.0,0.0,61,0.00,OVC,BKN,0.00,WeatherDisplay:10.37,2013-03-02 21:55:00,
2013-03-02 17:00:00,47.0,34.2,29.85,SSW,197,0.0,0.0,61,0.00,OVC,BKN,0.00,WeatherDisplay:10.37,2013-03-02 22:00:00,
2013-03-02 17:05:00,46.8,34.5,29.85,SSW,197,0.0,1.2,62,0.00,OVC,BKN,0.00,WeatherDisplay:10.37,2013-03-02 22:05:00,
2013-03-02 17:10:00,46.7,34.0,29.85,SSW,197,0.0,0.0,61,0.00,OVC,BKN,0.00,WeatherDisplay:10.37,2013-03-02 22:10:00,
2013-03-02 17:15:00,46.6,33.9,29.85,SSW,197,0.0,0.0,61,0.00,OVC,BKN,0.00,WeatherDisplay:10.37,2013-03-02 22:15:00,
2013-03-02 17:20:00,46.6,34.3,29.85,SSW,197,0.0,0.0,62,0.00,OVC,BKN,0.00,WeatherDisplay:10.37,2013-03-02 22:20:00,
2013-03-02 17:25:00,46.5,33.8,29.86,SSW,197,0.0,0.0,61,0.00,OVC,BKN,0.00,WeatherDisplay:10.37,2013-03-02 22:25:00,
2013-03-02 17:30:00,46.5,34.2,29.86,SSW,197,0.0,0.0,62,0.00,OVC,BKN,0.00,WeatherDisplay:10.37,2013-03-02 22:30:00,
2013-03-02 17:35:00,46.4,34.1,29.86,SSW,197,0.0,0.0,62,0.00,OVC,BKN,0.00,WeatherDisplay:10.37,2013-03-02 22:35:00,
2013-03-02 17:40:00,46.3,34.0,29.86,SSW,197,0.0,0.0,62,0.00,OVC,BKN,0.00,WeatherDisplay:10.37,2013-03-02 22:40:00,
2013-03-02 17:45:00,46.1,34.2,29.86,SSW,197,0.0,0.0,63,0.00,OVC,BKN,0.00,WeatherDisplay:10.37,2013-03-02 22:45:00,
2013-03-02 17:50:00,46.0,34.1,29.86,SSW,197,0.0,0.0,63,0.00,OVC,BKN,0.00,WeatherDisplay:10.37,2013-03-02 22:50:00,
2013-03-02 17:55:00,45.8,33.9,29.86,SSW,197,0.0,0.0,63,0.00,OVC,BKN,0.00,WeatherDisplay:10.37,2013-03-02 22:55:00,
2013-03-02 18:00:00,45.5,34.0,29.86,SSW,197,0.0,0.0,64,0.00,OVC,BKN,0.00,WeatherDisplay:10.37,2013-03-02 23:00:00,
2013-03-02 18:05:00,45.1,34.0,29.86,SSW,197,0.0,0.0,65,0.00,OVC,BKN,0.00,WeatherDisplay:10.37,2013-03-02 23:05:00,
2013-03-02 18:10:00,44.8,33.7,29.86,SSW,197,0.0,0.0,65,0.00,OVC,BKN,0.00,WeatherDisplay:10.37,2013-03-02 23:10:00,
2013-03-02 18:15:00,44.4,33.4,29.86,SSW,197,0.0,0.0,65,0.00,OVC,BKN,0.00,WeatherDisplay:10.37,2013-03-02 23:15:00,
2013-03-02 18:20:00,44.3,33.3,29.86,SSW,197,0.0,0.0,65,0.00,OVC,BKN,0.00,WeatherDisplay:10.37,2013-03-02 23:20:00,
2013-03-02 18:25:00,44.2,33.2,29.86,SSW,197,0.0,0.0,65,0.00,OVC,BKN,0.00,WeatherDisplay:10.37,2013-03-02 23:25:00,
2013-03-02 18:30:00,44.1,33.1,29.87,SSW,197,0.0,0.0,65,0.00,OVC,BKN,0.00,WeatherDisplay:10.37,2013-03-02 23:30:00,
2013-03-02 18:35:00,43.8,33.2,29.87,SSW,197,0.0,0.0,66,0.00,OVC,BKN,0.00,WeatherDisplay:10.37,2013-03-02 23:35:00,
2013-03-02 18:40:00,43.6,33.4,29.87,SSW,197,0.0,0.0,67,0.00,OVC,BKN,0.00,WeatherDisplay:10.37,2013-03-02 23:40:00,
2013-03-02 18:45:00,43.3,33.4,29.87,SSW,197,0.0,0.0,68,0.00,OVC,BKN,0.00,WeatherDisplay:10.37,2013-03-02 23:45:00,
2013-03-02 18:50:00,43.1,33.6,29.87,SSW,197,0.0,0.0,69,0.00,OVC,BKN,0.00,WeatherDisplay:10.37,2013-03-02 23:50:00,
2013-03-02 18:55:00,42.8,33.7,29.87,SSW,197,0.0,0.0,70,0.00,OVC,BKN,0.00,WeatherDisplay:10.37,2013-03-02 23:55:00,
2013-03-02 19:00:00,42.5,33.0,29.87,SSW,197,0.0,0.0,69,0.00,OVC,BKN,0.00,WeatherDisplay:10.37,2013-03-03 00:00:00,
2013-03-02 19:05:00,42.0,32.9,29.88,SSW,197,0.0,0.0,70,0.00,FEW,BKN,0.00,WeatherDisplay:10.37,2013-03-03 00:05:00,
2013-03-02 19:10:00,41.8,32.7,29.88,SSW,197,0.0,0.0,70,0.00,FEW,BKN,0.00,WeatherDisplay:10.37,2013-03-03 00:10:00,
2013-03-02 19:15:00,41.4,32.3,29.88,SSW,197,0.0,0.0,70,0.00,FEW,BKN,0.00,WeatherDisplay:10.37,2013-03-03 00:15:00,
2013-03-02 19:20:00,41.0,32.3,29.88,SSW,197,0.0,0.0,71,0.00,FEW,BKN,0.00,WeatherDisplay:10.37,2013-03-03 00:20:00,
2013-03-02 19:26:00,40.5,31.8,29.88,SSW,197,0.0,0.0,71,0.00,FEW,BKN,0.00,WeatherDisplay:10.37,2013-03-03 00:26:00,
2013-03-02 19:30:00,40.0,32.0,29.88,SSW,197,0.0,0.0,73,0.00,FEW,BKN,0.00,WeatherDisplay:10.37,2013-03-03 00:30:00,
2013-03-02 19:36:00,39.6,32.0,29.88,SSW,197,0.0,0.0,74,0.00,FEW,BKN,0.00,WeatherDisplay:10.37,2013-03-03 00:36:00,
2013-03-02 19:41:00,39.3,32.4,29.88,SSW,197,0.0,0.0,76,0.00,FEW,BKN,0.00,WeatherDisplay:10.37,2013-03-03 00:41:00,
2013-03-02 19:46:00,38.9,32.3,29.88,SSW,197,0.0,0.0,77,0.00,FEW,BKN,0.00,WeatherDisplay:10.37,2013-03-03 00:46:00,
2013-03-02 19:51:00,38.7,32.4,29.88,SSW,197,0.0,0.0,78,0.00,FEW,BKN,0.00,WeatherDisplay:10.37,2013-03-03 00:51:00,
2013-03-02 19:56:00,38.4,32.1,29.88,SSW,197,0.0,0.0,78,0.00,FEW,BKN,0.00,WeatherDisplay:10.37,2013-03-03 00:56:00,
2013-03-02 20:01:00,38.3,32.4,29.88,SSW,197,0.0,0.0,79,0.00,FEW,BKN,0.00,WeatherDisplay:10.37,2013-03-03 01:01:00,
2013-03-02 20:06:00,38.0,32.1,29.88,SSW,197,0.0,0.0,79,0.00,CLR,BKN,0.00,WeatherDisplay:10.37,2013-03-03 01:06:00,
2013-03-02 20:11:00,37.8,31.9,29.89,SSW,197,0.0,0.0,79,0.00,CLR,BKN,0.00,WeatherDisplay:10.37,2013-03-03 01:11:00,
2013-03-02 20:16:00,37.5,31.6,29.89,SSW,197,0.0,0.0,79,0.00,CLR,BKN,0.00,WeatherDisplay:10.37,2013-03-03 01:16:00,
2013-03-02 20:21:00,37.3,31.4,29.89,SSW,197,0.0,0.0,79,0.00,CLR,BKN,0.00,WeatherDisplay:10.37,2013-03-03 01:21:00,
2013-03-02 20:26:00,37.0,31.4,29.89,SSW,197,0.0,0.0,80,0.00,CLR,BKN,0.00,WeatherDisplay:10.37,2013-03-03 01:26:00,
2013-03-02 20:31:00,36.8,31.2,29.90,SSW,197,0.0,0.0,80,0.00,CLR,BKN,0.00,WeatherDisplay:10.37,2013-03-03 01:31:00,
2013-03-02 20:36:00,36.5,30.9,29.90,SSW,197,0.0,0.0,80,0.00,CLR,BKN,0.00,WeatherDisplay:10.37,2013-03-03 01:36:00,
2013-03-02 20:41:00,36.2,30.9,29.90,SSW,197,0.0,0.0,81,0.00,CLR,BKN,0.00,WeatherDisplay:10.37,2013-03-03 01:41:00,
2013-03-02 20:46:00,36.0,30.7,29.90,SSW,197,0.0,0.0,81,0.00,CLR,BKN,0.00,WeatherDisplay:10.37,2013-03-03 01:46:00,
2013-03-02 20:51:00,35.8,30.5,29.90,SSW,197,0.0,0.0,81,0.00,CLR,BKN,0.00,WeatherDisplay:10.37,2013-03-03 01:51:00,
2013-03-02 20:56:00,35.6,30.6,29.91,SSW,197,0.0,0.0,82,0.00,CLR,BKN,0.00,WeatherDisplay:10.37,2013-03-03 01:56:00,
2013-03-02 21:01:00,35.5,30.5,29.91,SSW,197,0.0,0.0,82,0.00,CLR,BKN,0.00,WeatherDisplay:10.37,2013-03-03 02:01:00,
2013-03-02 21:06:00,35.3,30.4,29.91,SSW,197,0.0,0.0,82,0.00,CLR,BKN,0.00,WeatherDisplay:10.37,2013-03-03 02:06:00,
2013-03-02 21:11:00,35.2,30.6,29.91,SSW,197,0.0,0.0,83,0.00,CLR,BKN,0.00,WeatherDisplay:10.37,2013-03-03 02:11:00,
2013-03-02 21:16:00,35.1,30.5,29.91,SSW,197,0.0,0.0,83,0.00,CLR,BKN,0.00,WeatherDisplay:10.37,2013-03-03 02:16:00,
2013-03-02 21:21:00,35.0,30.4,29.91,SSW,197,0.0,0.0,83,0.00,CLR,BKN,0.00,WeatherDisplay:10.37,2013-03-03 02:21:00,
2013-03-02 21:26:00,34.9,30.3,29.91,SSW,197,0.0,0.0,83,0.00,CLR,BKN,0.00,WeatherDisplay:10.37,2013-03-03 02:26:00,
2013-03-02 21:31:00,34.8,30.2,29.91,SSW,197,0.0,0.0,83,0.00,CLR,BKN,0.00,WeatherDisplay:10.37,2013-03-03 02:31:00,
2013-03-02 21:36:00,34.6,30.0,29.92,SSW,197,0.0,0.0,83,0.00,CLR,BKN,0.00,WeatherDisplay:10.37,2013-03-03 02:36:00,
2013-03-02 21:41:00,34.5,29.9,29.92,SSW,197,0.0,0.0,83,0.00,CLR,BKN,0.00,WeatherDisplay:10.37,2013-03-03 02:41:00,
2013-03-02 21:46:00,34.4,29.8,29.92,SSW,197,0.0,0.0,83,0.00,CLR,BKN,0.00,WeatherDisplay:10.37,2013-03-03 02:46:00,
2013-03-02 21:51:00,34.2,29.6,29.91,SSW,197,0.0,0.0,83,0.00,CLR,BKN,0.00,WeatherDisplay:10.37,2013-03-03 02:51:00,
2013-03-02 21:56:00,34.1,29.5,29.91,SSW,197,0.0,0.0,83,0.00,CLR,BKN,0.00,WeatherDisplay:10.37,2013-03-03 02:56:00,
2013-03-02 22:01:00,33.9,29.3,29.92,SSW,197,0.0,0.0,83,0.00,CLR,BKN,0.00,WeatherDisplay:10.37,2013-03-03 03:01:00,
2013-03-02 22:06:00,33.8,29.2,29.92,SSW,197,0.0,0.0,83,0.00,CLR,BKN,0.00,WeatherDisplay:10.37,2013-03-03 03:06:00,
2013-03-02 22:11:00,33.7,29.1,29.91,SSW,197,0.0,0.0,83,0.00,CLR,BKN,0.00,WeatherDisplay:10.37,2013-03-03 03:11:00,
2013-03-02 22:16:00,33.5,28.9,29.91,SSW,197,0.0,0.0,83,0.00,CLR,BKN,0.00,WeatherDisplay:10.37,2013-03-03 03:16:00,
2013-03-02 22:21:00,33.3,28.7,29.91,SSW,197,0.0,0.0,83,0.00,CLR,BKN,0.00,WeatherDisplay:10.37,2013-03-03 03:21:00,
2013-03-02 22:26:00,33.2,28.9,29.91,SSW,197,0.0,0.0,84,0.00,CLR,BKN,0.00,WeatherDisplay:10.37,2013-03-03 03:26:00,
2013-03-02 22:31:00,33.0,28.7,29.92,SSW,197,0.0,0.0,84,0.00,CLR,BKN,0.00,WeatherDisplay:10.37,2013-03-03 03:31:00,
2013-03-02 22:36:00,32.7,28.4,29.92,SSW,197,0.0,0.0,84,0.00,CLR,BKN,0.00,WeatherDisplay:10.37,2013-03-03 03:36:00,
2013-03-02 22:41:00,32.5,28.2,29.91,SSW,197,0.0,0.0,84,0.00,CLR,BKN,0.00,WeatherDisplay:10.37,2013-03-03 03:41:00,
2013-03-02 22:46:00,32.2,28.2,29.91,SSW,197,0.0,0.0,85,0.00,CLR,BKN,0.00,WeatherDisplay:10.37,2013-03-03 03:46:00,
2013-03-02 22:51:00,32.0,28.0,29.91,SSW,197,0.0,0.0,85,0.00,CLR,BKN,0.00,WeatherDisplay:10.37,2013-03-03 03:51:00,
2013-03-02 22:56:00,31.8,27.8,29.91,SSW,197,0.0,0.0,85,0.00,CLR,BKN,0.00,WeatherDisplay:10.37,2013-03-03 03:56:00,
2013-03-02 23:01:00,31.7,27.7,29.91,SSW,197,0.0,0.0,85,0.00,CLR,BKN,0.00,WeatherDisplay:10.37,2013-03-03 04:01:00,
2013-03-02 23:06:00,31.5,27.5,29.91,SSW,197,0.0,0.0,85,0.00,BKN,,0.00,WeatherDisplay:10.37,2013-03-03 04:06:00,
2013-03-02 23:11:00,31.4,27.7,29.90,SSW,197,0.0,0.0,86,0.00,BKN,,0.00,WeatherDisplay:10.37,2013-03-03 04:11:00,
2013-03-02 23:16:00,31.4,27.7,29.90,SSW,197,0.0,0.0,86,0.00,BKN,,0.00,WeatherDisplay:10.37,2013-03-03 04:16:00,
2013-03-02 23:21:00,31.3,27.6,29.90,SSW,197,0.0,0.0,86,0.00,BKN,,0.00,WeatherDisplay:10.37,2013-03-03 04:21:00,
2013-03-02 23:26:00,31.3,27.6,29.90,SSW,197,0.0,0.0,86,0.00,BKN,,0.00,WeatherDisplay:10.37,2013-03-03 04:26:00,
2013-03-02 23:31:00,31.2,27.8,29.90,SSW,197,0.0,0.0,87,0.00,BKN,,0.00,WeatherDisplay:10.37,2013-03-03 04:31:00,
2013-03-02 23:36:00,31.2,27.8,29.90,SSW,197,0.0,0.0,87,0.00,BKN,,0.00,WeatherDisplay:10.37,2013-03-03 04:36:00,
2013-03-02 23:41:00,31.3,27.9,29.90,SSW,197,0.0,0.0,87,0.00,BKN,,0.00,WeatherDisplay:10.37,2013-03-03 04:41:00,
2013-03-02 23:46:00,31.3,27.9,29.90,SSW,197,0.0,0.0,87,0.00,BKN,,0.00,WeatherDisplay:10.37,2013-03-03 04:46:00,
2013-03-02 23:51:00,31.3,27.9,29.90,SSW,197,0.0,0.0,87,0.00,BKN,,0.00,WeatherDisplay:10.37,2013-03-03 04:51:00,
2013-03-02 23:56:00,31.3,28.2,29.90,SSW,197,0.0,0.0,88,0.00,BKN,,0.00,WeatherDisplay:10.37,2013-03-03 04:56:00,